X  Luk Metar data     LIPZ Venice Marco Polo Airport
Temperatur
25°C Temperatur
21°C Duggpunkt
79% Fugtighed



Vind
14 KM/T
9 MPT
4 M/S
8 KNOB



20°
NNØ
Nuværende forhold

Klart Klart
Tryk 1014.9 (hPa) - 29.97 (inHg)
Sigt 6 (mil) - 9.7 (km)
Lufthavn
Lufthavnskode LIPZ

Lokation: Venice Marco Polo Airport
Afstand: 26 (km)

Metar:
LIPZ 180120Z 02008KT CAVOK 25/21 Q1015 NOSIG

Tid: 18-07-2024 03:20 CEST